Time;durP1;ratioP1;P1;durP2;ratioP2;P2;SDS_P1;SDS_P2;PMS_P1;PMS_P2;Temp;Humidity;BMP_temperature;BMP_pressure;BME280_temperature;BME280_humidity;BME280_pressure;Samples;Min_cycle;Max_cycle;Signal;HPM_P1;HPM_P2
2021/05/10 00:00:49;;;;;;;8.13;1.83;;;;;;;18.96;53.30;99825.69;5094111;28;20380;-65
2021/05/10 00:03:15;;;;;;;2.65;2.17;;;;;;;19.02;52.74;99826.63;5094097;28;20055;-65
2021/05/10 00:05:41;;;;;;;2.63;1.80;;;;;;;19.02;52.62;99829.31;5076189;28;20036;-65
2021/05/10 00:08:07;;;;;;;6.80;1.88;;;;;;;19.00;52.45;99831.44;5075629;28;20776;-65
2021/05/10 00:10:33;;;;;;;;;;;;;;;19.01;52.43;99835.78;5076570;28;20058;-65
2021/05/10 00:12:58;;;;;;;;;;;;;;;18.96;52.59;99841.91;5094310;28;20337;-65
2021/05/10 00:15:24;;;;;;;3.30;2.25;;;;;;;18.92;52.48;99847.00;5093732;28;19912;-65
2021/05/10 00:17:50;;;;;;;4.45;1.92;;;;;;;18.87;52.66;99844.19;5075753;28;20369;-65
2021/05/10 00:20:15;;;;;;;3.27;2.20;;;;;;;18.90;52.49;99837.47;5075904;28;20135;-65
2021/05/10 00:22:40;;;;;;;2.70;1.97;;;;;;;18.78;52.88;99832.09;5075762;28;20078;-65
2021/05/10 00:25:06;;;;;;;2.07;1.70;;;;;;;18.74;52.83;99833.59;5093813;28;20055;-65
2021/05/10 00:27:31;;;;;;;5.07;2.40;;;;;;;18.70;53.13;99838.63;5093383;28;20065;-65
2021/05/10 00:29:57;;;;;;;2.27;1.73;;;;;;;18.68;52.66;99842.66;5076170;28;20071;-65
2021/05/10 00:32:22;;;;;;;1.83;1.70;;;;;;;18.56;53.19;99843.47;5093551;28;20076;-65
2021/05/10 00:34:49;;;;;;;2.53;2.30;;;;;;;18.49;53.44;99845.47;5075812;28;20039;-65
2021/05/10 00:37:14;;;;;;;4.15;1.90;;;;;;;18.52;53.41;99839.63;5075406;28;20046;-65
2021/05/10 00:39:40;;;;;;;3.77;2.00;;;;;;;18.45;53.48;99849.75;5093042;28;20035;-65
2021/05/10 00:42:05;;;;;;;1.90;1.60;;;;;;;18.45;53.36;99841.63;5093339;28;20032;-65
2021/05/10 00:44:31;;;;;;;3.07;2.23;;;;;;;18.41;53.53;99836.94;5093302;28;20031;-65
2021/05/10 00:46:56;;;;;;;5.00;2.23;;;;;;;18.42;53.01;99839.38;5093255;28;20842;-65
2021/05/10 00:49:21;;;;;;;3.05;1.67;;;;;;;18.35;53.56;99836.81;5092906;28;20457;-65
2021/05/10 00:51:48;;;;;;;3.27;2.00;;;;;;;18.42;52.78;99839.38;5092957;28;20043;-65
2021/05/10 00:54:13;;;;;;;;;;;;;;;18.24;53.59;99843.06;5093622;28;20109;-65
2021/05/10 00:56:39;;;;;;;;;;;;;;;18.41;52.50;99851.25;5093415;28;19912;-65
2021/05/10 00:59:04;;;;;;;2.90;1.90;;;;;;;18.30;53.20;99850.19;5074313;28;20307;-65
2021/05/10 01:01:30;;;;;;;2.58;2.25;;;;;;;18.32;53.07;99856.19;5093037;28;20046;-65
2021/05/10 01:03:55;;;;;;;4.93;2.20;;;;;;;18.20;53.53;99843.75;5075195;28;20032;-65
2021/05/10 01:06:21;;;;;;;6.13;2.70;;;;;;;18.18;53.67;99843.97;5075051;28;20274;-65
2021/05/10 01:08:47;;;;;;;3.70;1.80;;;;;;;18.23;53.09;99840.56;5092599;28;20031;-65
2021/05/10 01:11:13;;;;;;;2.15;2.00;;;;;;;18.10;53.76;99839.75;5075089;28;20079;-65
2021/05/10 01:13:38;;;;;;;4.32;2.13;;;;;;;17.96;54.24;99845.59;5074865;28;20078;-65
2021/05/10 01:16:04;;;;;;;2.90;2.13;;;;;;;17.91;54.14;99844.44;5092748;28;20044;-65
2021/05/10 01:18:30;;;;;;;4.90;1.80;;;;;;;18.07;53.29;99847.47;5074519;28;20035;-65
2021/05/10 01:20:56;;;;;;;4.10;2.53;;;;;;;18.28;52.65;99857.72;5092557;28;20028;-65
2021/05/10 01:23:22;;;;;;;3.55;1.85;;;;;;;18.19;52.84;99847.50;5074634;28;20035;-65
2021/05/10 01:25:47;;;;;;;3.80;2.67;;;;;;;18.30;52.37;99852.09;5092630;28;20405;-65
2021/05/10 01:28:13;;;;;;;2.50;2.13;;;;;;;18.10;53.50;99861.38;5074389;28;20453;-65
2021/05/10 01:30:43;;;;;;;3.13;2.10;;;;;;;18.03;53.57;99857.94;5092482;28;20282;-65
2021/05/10 01:33:10;;;;;;;4.13;2.13;;;;;;;17.94;53.78;99859.34;5092420;28;20032;-65
2021/05/10 01:35:41;;;;;;;3.42;2.15;;;;;;;17.88;53.53;99860.25;5092275;28;20067;-65
2021/05/10 01:38:07;;;;;;;5.88;2.08;;;;;;;17.93;53.45;99857.69;5091979;28;20126;-65
2021/05/10 01:40:33;;;;;;;6.80;2.83;;;;;;;17.88;53.47;99852.16;5074550;28;20039;-65
2021/05/10 01:42:58;;;;;;;4.97;3.08;;;;;;;17.85;53.61;99855.34;5092302;28;20032;-65
2021/05/10 01:45:24;;;;;;;2.67;2.20;;;;;;;17.82;53.61;99861.22;5092155;28;20127;-65
2021/05/10 01:47:57;;;;;;;3.60;1.87;;;;;;;17.79;53.86;99856.22;5091829;28;20028;-65
2021/05/10 01:50:23;;;;;;;2.95;2.13;;;;;;;17.68;53.79;99864.06;5074205;28;20369;-65
2021/05/10 01:52:48;;;;;;;4.90;2.05;;;;;;;17.60;54.02;99856.28;5074158;28;20032;-65
2021/05/10 01:55:16;;;;;;;3.67;2.13;;;;;;;17.67;53.33;99853.50;5091977;28;20453;-65
2021/05/10 01:57:46;;;;;;;9.73;2.00;;;;;;;17.76;52.63;99851.28;5091672;28;20032;-65
2021/05/10 02:00:14;;;;;;;2.47;1.85;;;;;;;17.80;52.45;99855.19;5074010;28;20292;-65
2021/05/10 02:02:39;;;;;;;3.42;2.53;;;;;;;17.80;52.25;99844.38;5073781;28;20123;-65
2021/05/10 02:05:10;;;;;;;2.90;1.80;;;;;;;17.81;52.07;99849.56;5091816;28;20176;-65
2021/05/10 02:07:37;;;;;;;2.95;2.17;;;;;;;17.83;51.32;99843.94;5073701;28;20031;-65
2021/05/10 02:10:08;;;;;;;3.65;1.90;;;;;;;17.81;51.70;99848.75;5091612;28;20031;-65
2021/05/10 02:12:34;;;;;;;2.17;1.73;;;;;;;17.77;51.79;99847.53;5091640;28;20035;-65
2021/05/10 02:14:59;;;;;;;2.47;1.50;;;;;;;17.75;51.40;99849.63;5091376;28;20483;-65
2021/05/10 02:17:25;;;;;;;5.07;2.10;;;;;;;17.84;50.82;99848.28;5073596;28;20882;-65
2021/05/10 02:19:50;;;;;;;2.60;1.37;;;;;;;17.82;50.96;99845.00;5073592;28;20177;-65
2021/05/10 02:22:15;;;;;;;6.37;2.30;;;;;;;17.70;51.77;99843.06;5091566;28;20036;-65
2021/05/10 02:24:41;;;;;;;6.93;2.07;;;;;;;17.63;51.43;99853.16;5073760;28;20075;-65
2021/05/10 02:27:06;;;;;;;6.00;1.57;;;;;;;17.52;51.77;99846.66;5091465;28;20124;-65
2021/05/10 02:29:32;;;;;;;1.77;1.67;;;;;;;17.58;51.44;99861.09;5073290;28;20032;-65
2021/05/10 02:31:58;;;;;;;2.00;1.70;;;;;;;17.52;51.51;99856.63;5073638;28;20042;-65
2021/05/10 02:34:23;;;;;;;2.30;1.70;;;;;;;17.50;51.47;99856.03;5091339;28;20441;-65
2021/05/10 02:36:49;;;;;;;2.00;1.77;;;;;;;17.46;51.56;99858.34;5073524;28;20071;-65
2021/05/10 02:39:14;;;;;;;2.72;1.80;;;;;;;17.38;51.49;99861.38;5090907;28;20036;-65
2021/05/10 02:41:39;;;;;;;3.37;2.33;;;;;;;17.41;51.68;99863.63;5091257;28;20036;-65
2021/05/10 02:44:05;;;;;;;4.60;2.20;;;;;;;17.24;52.49;99871.53;5091195;28;20051;-65
2021/05/10 02:46:30;;;;;;;2.93;1.97;;;;;;;17.23;52.32;99871.75;5091039;28;20452;-65
2021/05/10 02:48:56;;;;;;;4.20;2.00;;;;;;;17.14;52.81;99867.72;5073327;28;20031;-65
2021/05/10 02:51:22;;;;;;;2.00;1.63;;;;;;;17.13;53.05;99866.91;5073596;28;20074;-65
2021/05/10 02:53:47;;;;;;;3.33;2.20;;;;;;;17.29;51.90;99873.53;5091224;28;20442;-65
2021/05/10 02:56:12;;;;;;;7.80;1.93;;;;;;;17.27;52.18;99870.25;5073366;28;20050;-65
2021/05/10 02:58:37;;;;;;;4.33;2.10;;;;;;;17.25;52.16;99870.47;5090774;28;20024;-65
2021/05/10 03:01:03;;;;;;;3.37;1.77;;;;;;;17.35;51.84;99871.78;5090958;28;20064;-65
2021/05/10 03:03:28;;;;;;;3.10;2.13;;;;;;;17.24;52.26;99874.22;5056615;28;20032;-65
2021/05/10 03:05:53;;;;;;;2.60;1.80;;;;;;;17.35;51.75;99882.59;5091108;28;20414;-65
2021/05/10 03:08:19;;;;;;;6.90;2.33;;;;;;;17.27;52.14;99875.63;5072999;28;20415;-65
2021/05/10 03:10:44;;;;;;;3.00;2.07;;;;;;;17.26;52.21;99879.41;5090910;28;20683;-65
2021/05/10 03:13:09;;;;;;;1.90;1.60;;;;;;;17.25;52.35;99877.75;5073184;28;20040;-65
2021/05/10 03:15:35;;;;;;;3.50;1.83;;;;;;;17.26;52.07;99885.63;5072982;28;20136;-66
2021/05/10 03:18:00;;;;;;;9.43;2.53;;;;;;;17.11;52.86;99882.47;5090502;28;20079;-65
2021/05/10 03:20:25;;;;;;;3.80;1.60;;;;;;;17.18;52.53;99877.00;5091374;28;20040;-65
2021/05/10 03:22:52;;;;;;;5.60;2.20;;;;;;;17.13;52.62;99880.38;5094910;28;20035;-65
2021/05/10 03:25:22;;;;;;;4.20;1.98;;;;;;;17.05;52.85;99884.22;5077082;28;20127;-66
2021/05/10 03:27:47;;;;;;;2.65;2.10;;;;;;;17.05;52.67;99880.69;5094492;28;20043;-65
2021/05/10 03:30:15;;;;;;;3.28;2.10;;;;;;;17.12;52.75;99894.94;5060122;28;20119;-65
2021/05/10 03:32:42;;;;;;;2.42;2.13;;;;;;;17.04;53.00;99897.91;5076931;28;20086;-65
2021/05/10 03:35:10;;;;;;;4.32;2.25;;;;;;;16.95;53.62;99904.66;5076906;28;20038;-65
2021/05/10 03:37:35;;;;;;;3.78;2.47;;;;;;;16.94;53.53;99892.22;5094246;28;20397;-65
2021/05/10 03:40:01;;;;;;;5.60;2.60;;;;;;;16.73;54.62;99901.56;5094707;28;20071;-66
2021/05/10 03:42:27;;;;;;;2.67;2.07;;;;;;;16.66;54.71;99907.81;5094483;28;20044;-65
2021/05/10 03:44:53;;;;;;;2.13;1.87;;;;;;;16.64;54.92;99904.53;5076370;28;20286;-65
2021/05/10 03:47:19;;;;;;;4.55;2.22;;;;;;;16.58;55.29;99900.03;5094466;28;20289;-65
2021/05/10 03:49:44;;;;;;;3.28;2.25;;;;;;;16.63;54.92;99902.06;5076266;28;20035;-65
2021/05/10 03:52:10;;;;;;;5.47;2.97;;;;;;;16.62;54.88;99900.41;5094380;28;20441;-65
2021/05/10 03:54:35;;;;;;;2.60;2.40;;;;;;;16.53;55.30;99897.19;5076454;28;20035;-65
2021/05/10 03:57:00;;;;;;;5.80;2.07;;;;;;;16.44;55.66;99909.31;5094275;28;20032;-65
2021/05/10 03:59:26;;;;;;;2.80;2.57;;;;;;;16.45;56.01;99905.56;5093555;28;20048;-65
2021/05/10 04:01:53;;;;;;;3.38;2.13;;;;;;;16.40;55.60;99919.69;5094325;28;20050;-65
2021/05/10 04:04:26;;;;;;;4.30;2.70;;;;;;;16.45;55.61;99932.50;5076202;28;20040;-65
2021/05/10 04:07:09;;;;;;;5.78;2.53;;;;;;;16.40;55.80;99922.38;5094113;28;20105;-65
2021/05/10 04:10:03;;;;;;;7.93;2.20;;;;;;;16.43;55.73;99923.81;5067573;28;20115;-65
2021/05/10 04:15:13;;;;;;;2.88;2.33;;;;;;;16.60;54.99;99951.00;5075803;28;20027;-65
2021/05/10 04:17:38;;;;;;;2.97;2.13;;;;;;;16.58;55.49;99945.03;5075805;28;20465;-65
2021/05/10 04:20:04;;;;;;;5.73;2.07;;;;;;;16.61;55.47;99941.88;5059060;28;20032;-65
2021/05/10 04:22:30;;;;;;;3.42;2.20;;;;;;;16.73;54.93;99950.06;5093636;28;20040;-65
2021/05/10 04:24:55;;;;;;;2.57;2.10;;;;;;;16.73;55.01;99950.88;5093641;28;20119;-65
2021/05/10 04:27:20;;;;;;;5.17;2.30;;;;;;;16.74;55.17;99941.78;5075566;28;20039;-65
2021/05/10 04:29:46;;;;;;;16.47;2.37;;;;;;;16.84;54.79;99947.50;5093175;28;20043;-65
2021/05/10 04:32:11;;;;;;;6.27;2.20;;;;;;;16.95;54.67;99951.34;5074687;28;20052;-65
2021/05/10 04:34:36;;;;;;;5.50;2.00;;;;;;;17.03;54.74;99958.28;5075539;28;20059;-65
2021/05/10 04:37:02;;;;;;;3.90;2.10;;;;;;;17.00;55.39;99956.06;5092488;28;20032;-65
2021/05/10 04:39:27;;;;;;;3.70;2.17;;;;;;;17.10;54.62;99961.75;5058582;28;20413;-65
2021/05/10 04:41:52;;;;;;;4.13;2.27;;;;;;;17.20;54.71;99964.72;5093632;28;20039;-65
2021/05/10 04:44:18;;;;;;;2.30;2.00;;;;;;;17.19;54.58;99973.88;5075610;28;20043;-65
2021/05/10 04:46:43;;;;;;;4.97;2.43;;;;;;;17.22;54.24;99973.44;5075746;28;20046;-65
2021/05/10 04:49:08;;;;;;;6.60;2.90;;;;;;;17.30;54.61;99970.44;5093094;28;20111;-65
2021/05/10 04:51:33;;;;;;;4.30;2.23;;;;;;;17.54;53.93;99965.16;5093223;28;20120;-65
2021/05/10 04:53:59;;;;;;;3.73;2.40;;;;;;;17.49;54.19;99970.44;5075642;28;20067;-65
2021/05/10 04:56:24;;;;;;;4.00;2.00;;;;;;;17.52;53.72;99969.97;5093198;28;20036;-65
2021/05/10 04:58:49;;;;;;;2.53;2.00;;;;;;;17.47;53.75;99967.94;5092529;28;20368;-65
2021/05/10 05:01:15;;;;;;;6.10;2.40;;;;;;;17.37;54.42;99972.22;5093073;28;20086;-65
2021/05/10 05:03:40;;;;;;;4.13;2.27;;;;;;;17.41;54.03;99978.81;5075245;28;20039;-66
2021/05/10 05:06:06;;;;;;;4.87;2.13;;;;;;;17.37;53.65;99983.84;5075039;28;20104;-66
2021/05/10 05:08:31;;;;;;;4.10;2.38;;;;;;;17.46;53.55;99970.88;5092685;28;20040;-65
2021/05/10 05:10:57;;;;;;;3.53;2.17;;;;;;;17.51;53.26;99979.09;5092748;28;20178;-66
2021/05/10 05:13:23;;;;;;;6.80;2.20;;;;;;;17.63;53.33;99976.47;5075084;28;20047;-65
2021/05/10 05:15:49;;;;;;;4.90;2.20;;;;;;;17.79;52.75;99992.03;5092646;28;20047;-65
2021/05/10 05:18:14;;;;;;;2.20;1.73;;;;;;;18.24;51.77;99988.09;5058015;28;20036;-66
2021/05/10 05:20:40;;;;;;;4.70;2.33;;;;;;;18.30;51.96;99982.59;5074823;28;20036;-65
2021/05/10 05:23:21;;;;;;;7.10;1.93;;;;;;;18.64;50.81;99976.66;5074895;28;20040;-65
2021/05/10 05:25:46;;;;;;;4.93;2.03;;;;;;;18.76;50.44;99964.81;5092590;28;20028;-66
2021/05/10 05:28:12;;;;;;;12.18;2.47;;;;;;;18.91;50.08;99977.84;5092240;28;20339;-65
2021/05/10 05:30:37;;;;;;;2.97;2.53;;;;;;;19.32;49.09;99976.03;5074741;28;20032;-66
2021/05/10 05:33:03;;;;;;;4.00;2.03;;;;;;;18.77;50.60;99984.56;5092141;28;20399;-65
2021/05/10 05:35:28;;;;;;;4.07;2.08;;;;;;;18.46;51.22;99983.81;5092412;28;20361;-65
2021/05/10 05:37:54;;;;;;;2.70;1.97;;;;;;;18.13;52.58;99987.84;5091956;28;20036;-65
2021/05/10 05:40:19;;;;;;;4.23;2.00;;;;;;;17.97;52.96;99982.28;5092327;28;20036;-65
2021/05/10 05:42:44;;;;;;;3.73;2.30;;;;;;;17.81;53.69;99989.94;5092091;28;20024;-65
2021/05/10 05:45:11;;;;;;;5.13;2.17;;;;;;;17.75;53.22;99981.91;5091839;28;20357;-65
2021/05/10 05:47:36;;;;;;;2.90;2.20;;;;;;;17.66;54.25;99987.63;5091733;28;20862;-65
2021/05/10 05:50:02;;;;;;;3.93;1.90;;;;;;;17.68;54.01;99984.72;5092173;28;20075;-66
2021/05/10 05:52:27;;;;;;;2.73;1.80;;;;;;;17.69;54.19;99980.94;5074181;28;20074;-66
2021/05/10 05:54:53;;;;;;;4.00;2.03;;;;;;;17.59;54.11;99978.81;5074273;28;20035;-65
2021/05/10 05:57:19;;;;;;;3.30;2.25;;;;;;;17.61;54.75;99975.88;5074062;28;20044;-66
2021/05/10 05:59:44;;;;;;;3.20;2.22;;;;;;;17.65;54.53;99986.00;5073851;28;20031;-65
2021/05/10 06:02:10;;;;;;;4.07;2.30;;;;;;;17.59;54.76;99986.91;5074031;28;20467;-65
2021/05/10 06:04:35;;;;;;;3.87;1.73;;;;;;;17.67;54.87;99981.16;5091887;28;20093;-65
2021/05/10 06:07:00;;;;;;;3.97;1.90;;;;;;;17.68;54.18;99977.44;5091991;28;20845;-65
2021/05/10 06:09:26;;;;;;;8.23;2.20;;;;;;;17.80;53.78;99982.88;5073602;28;20479;-66
2021/05/10 06:11:54;;;;;;;2.33;2.00;;;;;;;17.77;53.48;99982.50;5091676;28;20342;-66
2021/05/10 06:14:20;;;;;;;3.13;2.00;;;;;;;17.73;54.13;99984.84;5091613;28;20043;-66
2021/05/10 06:16:45;;;;;;;6.80;2.47;;;;;;;17.66;54.12;99976.84;5073866;28;20492;-66
2021/05/10 06:19:11;;;;;;;4.50;2.17;;;;;;;17.65;53.76;99972.50;5073409;28;20032;-66
2021/05/10 06:21:38;;;;;;;2.70;1.98;;;;;;;17.62;53.32;99964.84;5091599;28;20044;-66
2021/05/10 06:24:04;;;;;;;2.30;1.80;;;;;;;17.76;53.82;99970.06;5091494;28;20092;-66
2021/05/10 06:26:29;;;;;;;4.47;2.20;;;;;;;17.80;53.26;99964.00;5091564;28;20040;-66
2021/05/10 06:28:54;;;;;;;2.83;2.00;;;;;;;17.80;53.29;99976.66;5073216;28;20032;-66
2021/05/10 06:31:20;;;;;;;9.53;1.93;;;;;;;17.88;52.76;99987.16;5073644;28;20044;-65
2021/05/10 06:33:45;;;;;;;8.50;2.33;;;;;;;17.93;53.18;99987.28;5073685;28;20052;-65
2021/05/10 06:36:11;;;;;;;3.05;1.90;;;;;;;18.06;52.71;99979.00;5091430;28;20036;-65
2021/05/10 06:38:36;;;;;;;4.03;1.60;;;;;;;18.10;53.11;99991.00;5091079;28;20058;-66
2021/05/10 06:41:02;;;;;;;5.70;2.27;;;;;;;18.00;54.10;100001.53;5091347;28;20031;-65
2021/05/10 06:43:27;;;;;;;4.50;2.20;;;;;;;17.97;54.94;100009.28;5091385;28;20157;-65
2021/05/10 06:45:52;;;;;;;3.20;2.37;;;;;;;17.76;56.12;100003.28;5073463;28;20369;-65
2021/05/10 06:48:29;;;;;;;9.47;2.73;;;;;;;17.69;57.64;100003.38;5091142;28;20070;-65
2021/05/10 06:50:54;;;;;;;;;;;;;;;17.81;54.80;100008.03;5091616;28;20043;-66
2021/05/10 06:53:20;;;;;;;;;;;;;;;17.94;55.11;100018.66;5091725;28;19912;-71
2021/05/10 06:55:45;;;;;;;4.60;2.50;;;;;;;17.89;55.30;100018.53;5072559;28;19911;-71
2021/05/10 06:58:10;;;;;;;3.80;2.43;;;;;;;17.98;55.13;100011.75;5090886;28;20553;-71
2021/05/10 07:00:37;;;;;;;4.50;2.33;;;;;;;18.05;55.23;100014.34;5091015;28;20039;-72
2021/05/10 07:03:03;;;;;;;5.10;2.40;;;;;;;17.89;55.40;100005.84;5073439;28;20107;-72
2021/05/10 07:05:28;;;;;;;3.00;2.67;;;;;;;17.78;56.44;99989.56;5073409;28;20059;-72
2021/05/10 07:07:53;;;;;;;6.07;2.67;;;;;;;17.75;55.86;99995.41;5090857;28;20043;-72
2021/05/10 07:10:19;;;;;;;7.93;2.53;;;;;;;17.77;55.88;100004.94;5091180;28;20028;-72
2021/05/10 07:12:44;;;;;;;3.60;2.23;;;;;;;17.90;56.09;100012.88;5091027;28;20043;-72
2021/05/10 07:15:10;;;;;;;2.23;2.03;;;;;;;17.91;55.82;100017.25;5073223;28;20111;-72
2021/05/10 07:17:35;;;;;;;4.32;2.60;;;;;;;17.94;55.72;100015.97;5090762;28;20036;-71
2021/05/10 07:20:00;;;;;;;9.90;3.40;;;;;;;18.11;55.85;100022.34;5091041;28;20059;-72
2021/05/10 07:22:26;;;;;;;4.63;2.67;;;;;;;18.23;55.58;100022.41;5073144;28;20040;-72
2021/05/10 07:24:51;;;;;;;7.90;2.40;;;;;;;18.20;54.38;100024.75;5091003;28;20050;-71
2021/05/10 07:27:16;;;;;;;3.97;2.47;;;;;;;18.23;54.70;100027.81;5090881;28;20119;-72
2021/05/10 07:29:42;;;;;;;2.47;2.27;;;;;;;18.29;55.15;100021.50;5072683;28;20430;-71
2021/05/10 07:32:07;;;;;;;5.43;2.10;;;;;;;18.27;55.44;100009.25;5073086;28;20448;-72
2021/05/10 07:34:32;;;;;;;7.57;2.73;;;;;;;18.13;55.86;100019.44;5090882;28;20475;-71
2021/05/10 07:36:58;;;;;;;4.40;2.23;;;;;;;18.28;56.19;100029.81;5090756;28;20449;-72
2021/05/10 07:39:23;;;;;;;4.70;2.67;;;;;;;18.31;56.71;100032.06;5072655;28;20062;-72
2021/05/10 07:41:49;;;;;;;4.87;2.47;;;;;;;18.44;56.29;100021.03;5090777;28;20035;-72
2021/05/10 07:44:14;;;;;;;8.30;2.30;;;;;;;18.38;56.38;100030.09;5090493;28;20040;-72
2021/05/10 07:46:39;;;;;;;4.13;2.77;;;;;;;18.37;56.07;100028.44;5090885;28;20118;-72
2021/05/10 07:49:05;;;;;;;3.73;2.20;;;;;;;18.48;55.89;100024.94;5055824;28;20115;-71
2021/05/10 07:51:30;;;;;;;3.27;2.10;;;;;;;18.45;55.94;100022.72;5090700;28;20063;-71
2021/05/10 07:53:57;;;;;;;2.27;2.00;;;;;;;18.58;55.66;100004.63;5090475;28;20102;-72
2021/05/10 07:56:23;;;;;;;4.18;2.22;;;;;;;18.61;55.43;99987.94;5090727;28;20036;-72
2021/05/10 07:58:48;;;;;;;2.97;2.22;;;;;;;18.55;55.50;99995.91;5072318;28;20558;-72
2021/05/10 08:01:14;;;;;;;4.53;2.53;;;;;;;18.48;56.69;100016.81;5072970;28;20039;-72
2021/05/10 08:03:43;;;;;;;4.07;2.40;;;;;;;18.53;56.15;100027.75;5072710;28;20377;-72
2021/05/10 08:06:08;;;;;;;4.68;2.10;;;;;;;18.64;56.65;100036.13;5056166;28;20028;-72
2021/05/10 08:08:36;;;;;;;4.80;2.40;;;;;;;18.69;56.23;100038.97;5075946;28;20036;-72
2021/05/10 08:11:03;;;;;;;3.88;2.28;;;;;;;18.70;55.43;100024.38;5094028;28;20332;-71
2021/05/10 08:13:29;;;;;;;4.72;2.22;;;;;;;18.83;54.93;100012.56;5076161;28;20488;-72
2021/05/10 08:15:55;;;;;;;5.70;2.78;;;;;;;18.89;54.82;100015.13;5076209;28;20043;-72
2021/05/10 08:18:20;;;;;;;3.53;2.30;;;;;;;19.25;54.05;100009.72;5093610;28;20438;-72
2021/05/10 08:20:45;;;;;;;5.23;2.60;;;;;;;19.40;53.19;100013.56;5076186;28;20032;-72
2021/05/10 08:23:12;;;;;;;9.27;2.37;;;;;;;19.66;53.04;100021.38;5076068;28;20061;-71
2021/05/10 08:25:39;;;;;;;5.80;1.95;;;;;;;20.54;52.03;100011.09;5093896;28;20492;-66
2021/05/10 08:28:05;;;;;;;7.03;3.25;;;;;;;20.49;50.49;99995.56;5075934;28;20024;-65
2021/05/10 08:30:31;;;;;;;4.25;2.50;;;;;;;21.77;47.93;100000.09;5075853;28;20044;-65
2021/05/10 08:32:59;;;;;;;6.75;2.47;;;;;;;22.48;45.25;100001.91;5093773;28;20043;-65
2021/05/10 08:35:26;;;;;;;4.40;2.45;;;;;;;21.66;46.07;100007.31;5075740;28;20039;-66
2021/05/10 08:37:51;;;;;;;;;;;;;;;22.30;46.39;100001.22;5075970;28;20741;-66
2021/05/10 08:40:16;;;;;;;2.75;1.88;;;;;;;22.43;44.82;100001.84;5075826;28;20339;-66
2021/05/10 08:42:45;;;;;;;2.90;2.20;;;;;;;22.18;45.97;100008.69;5093525;28;20067;-66
2021/05/10 08:45:22;;;;;;;4.47;2.35;;;;;;;21.91;47.50;100014.09;5075573;28;20036;-66
2021/05/10 08:47:47;;;;;;;6.20;2.35;;;;;;;21.81;47.79;100011.28;5093259;28;20047;-66
2021/05/10 08:50:14;;;;;;;6.05;2.58;;;;;;;21.65;47.68;100021.97;5075556;28;20365;-66
2021/05/10 08:52:39;;;;;;;2.35;2.15;;;;;;;21.36;48.80;100013.16;5075553;28;20130;-66
2021/05/10 08:55:05;;;;;;;4.80;2.23;;;;;;;21.62;48.69;100016.22;5093101;28;20040;-66
2021/05/10 08:57:31;;;;;;;3.97;2.38;;;;;;;22.67;46.20;100014.03;5058577;28;20032;-65
2021/05/10 08:59:56;;;;;;;6.73;2.63;;;;;;;22.71;46.23;100007.00;5092964;28;20077;-66
2021/05/10 09:02:34;;;;;;;2.93;2.40;;;;;;;23.03;45.75;100006.13;5075426;28;20046;-66
2021/05/10 09:05:11;;;;;;;5.28;2.22;;;;;;;23.94;43.90;100017.72;5075242;28;20111;-66
2021/05/10 09:07:36;;;;;;;3.83;2.13;;;;;;;23.37;44.12;100020.22;5058220;28;20050;-66
2021/05/10 09:10:08;;;;;;;4.67;2.60;;;;;;;22.69;46.70;100020.03;5075112;28;20036;-66
2021/05/10 09:12:48;;;;;;;6.22;2.53;;;;;;;23.62;44.90;100028.75;5092873;28;20079;-66
2021/05/10 09:15:33;;;;;;;3.85;2.47;;;;;;;23.64;44.89;100032.03;5092713;28;20035;-66
2021/05/10 09:18:02;;;;;;;8.82;2.88;;;;;;;24.14;44.41;100022.41;5091947;28;20043;-66
2021/05/10 09:20:30;;;;;;;5.53;2.70;;;;;;;23.82;44.32;100023.44;5092522;28;20039;-66
2021/05/10 09:23:11;;;;;;;4.60;2.38;;;;;;;23.90;44.27;100032.97;5074845;28;20036;-66
2021/05/10 09:25:53;;;;;;;4.38;2.85;;;;;;;24.41;45.04;100033.88;5092600;28;20044;-66
2021/05/10 09:28:20;;;;;;;11.35;2.75;;;;;;;24.38;43.12;100036.34;5074330;28;20127;-66
2021/05/10 09:30:50;;;;;;;6.18;2.38;;;;;;;25.27;41.99;100034.97;5092452;28;20104;-66
2021/05/10 09:33:25;;;;;;;5.57;2.60;;;;;;;25.58;41.63;100029.41;5074741;28;20031;-66
2021/05/10 09:35:55;;;;;;;3.20;2.00;;;;;;;25.19;40.96;100024.63;5074542;28;20411;-66
2021/05/10 09:38:24;;;;;;;4.15;1.88;;;;;;;24.97;41.63;100040.47;5074340;28;20032;-66
2021/05/10 09:40:54;;;;;;;3.88;2.17;;;;;;;25.76;40.53;100041.63;5074391;28;20036;-66
2021/05/10 09:43:23;;;;;;;4.95;2.40;;;;;;;25.85;40.04;100030.94;5092047;28;20058;-66
2021/05/10 09:45:53;;;;;;;4.07;2.15;;;;;;;26.72;39.35;100031.19;5057927;28;20045;-66
2021/05/10 09:48:21;;;;;;;4.15;2.00;;;;;;;25.92;39.95;100017.78;5074093;28;20039;-66
2021/05/10 09:51:13;;;;;;;3.28;2.42;;;;;;;25.80;40.07;100020.84;5074236;28;20126;-66
2021/05/10 09:53:49;;;;;;;5.30;2.65;;;;;;;24.94;40.84;100035.56;5074352;28;20043;-66
2021/05/10 09:56:39;;;;;;;;;;;;;;;24.91;41.17;100041.56;5092654;28;20400;-66
2021/05/10 09:59:12;;;;;;;4.60;2.88;;;;;;;24.87;41.55;100054.13;5090981;28;19916;-66
2021/05/10 10:01:43;;;;;;;5.57;3.05;;;;;;;24.51;42.10;100068.56;5091944;28;20105;-66
2021/05/10 10:04:09;;;;;;;5.47;3.28;;;;;;;24.11;42.63;100066.56;5091913;28;20032;-66
2021/05/10 10:06:35;;;;;;;7.05;3.47;;;;;;;23.67;43.27;100064.19;5091928;28;20369;-66
2021/05/10 10:09:00;;;;;;;5.13;3.30;;;;;;;24.11;43.00;100064.66;5091580;28;20461;-66
2021/05/10 10:11:26;;;;;;;8.10;4.47;;;;;;;24.02;42.58;100064.38;5091797;28;20051;-66
2021/05/10 10:13:55;;;;;;;7.65;3.65;;;;;;;24.01;43.54;100061.91;5091843;28;20046;-66
2021/05/10 10:16:22;;;;;;;3.65;2.70;;;;;;;24.13;43.74;100065.22;5073825;28;20047;-66
2021/05/10 10:18:48;;;;;;;4.13;2.70;;;;;;;23.55;44.52;100064.41;5073671;28;20035;-66
2021/05/10 10:21:16;;;;;;;3.22;2.30;;;;;;;23.28;45.89;100067.28;5091722;28;20103;-66
2021/05/10 10:23:43;;;;;;;3.90;2.28;;;;;;;23.08;46.72;100057.06;5073939;28;20058;-66
2021/05/10 10:26:11;;;;;;;3.92;3.13;;;;;;;23.18;45.35;100059.88;5073802;28;20115;-66
2021/05/10 10:28:38;;;;;;;8.30;2.47;;;;;;;23.13;46.68;100063.38;5073510;28;20032;-66
2021/05/10 10:31:16;;;;;;;3.58;2.20;;;;;;;23.28;46.25;100059.13;5090291;28;20338;-66
2021/05/10 10:33:44;;;;;;;6.00;2.47;;;;;;;23.42;45.03;100060.28;5073651;28;20040;-66
2021/05/10 10:36:17;;;;;;;8.00;2.42;;;;;;;23.39;45.60;100061.63;5073740;28;20043;-66
2021/05/10 10:38:43;;;;;;;5.35;2.78;;;;;;;23.52;45.76;100057.59;5091043;28;20375;-66
2021/05/10 10:41:22;;;;;;;5.65;2.88;;;;;;;23.80;45.57;100061.03;5091319;28;20035;-66
2021/05/10 10:43:49;;;;;;;5.05;2.30;;;;;;;24.05;44.79;100051.31;5073573;28;20055;-66
2021/05/10 10:46:17;;;;;;;5.50;2.28;;;;;;;24.44;43.61;100055.19;5091365;28;20036;-67
2021/05/10 10:48:44;;;;;;;8.02;2.60;;;;;;;24.50;44.59;100049.75;5073346;28;20059;-66
2021/05/10 10:51:10;;;;;;;;;;;;;;;24.43;44.41;100059.00;5073897;28;20040;-66
2021/05/10 10:53:43;;;;;;;4.35;2.40;;;;;;;23.78;45.80;100064.00;5082973;28;19923;-66
2021/05/10 10:56:09;;;;;;;3.30;2.60;;;;;;;23.75;46.57;100069.19;5091241;28;20372;-66
2021/05/10 10:58:34;;;;;;;2.90;2.35;;;;;;;23.87;45.96;100061.59;5073005;28;20043;-66
2021/05/10 11:01:07;;;;;;;4.60;2.75;;;;;;;24.60;44.64;100066.13;5091296;28;20039;-66
2021/05/10 11:03:35;;;;;;;5.85;2.50;;;;;;;24.47;44.61;100055.75;5073354;28;20036;-66
2021/05/10 11:06:01;;;;;;;8.45;2.50;;;;;;;24.66;44.31;100061.50;5091139;28;20032;-67
2021/05/10 11:08:39;;;;;;;3.05;2.15;;;;;;;24.78;44.09;100051.94;5072841;28;20050;-66
2021/05/10 11:11:07;;;;;;;5.70;2.45;;;;;;;25.32;42.18;100047.78;5091213;28;20051;-67
2021/05/10 11:13:33;;;;;;;6.13;2.10;;;;;;;25.35;42.16;100041.75;5073324;28;20046;-66
2021/05/10 11:15:59;;;;;;;4.03;2.10;;;;;;;26.13;39.61;100045.84;5091121;28;20043;-67
2021/05/10 11:18:48;;;;;;;5.10;2.38;;;;;;;26.80;38.28;100048.91;5072842;28;20051;-66
2021/05/10 11:21:22;;;;;;;7.28;2.25;;;;;;;26.90;37.70;100053.47;5091095;28;20054;-67
2021/05/10 11:24:01;;;;;;;6.10;2.03;;;;;;;27.40;36.50;100047.81;5073204;28;20048;-67
2021/05/10 11:26:39;;;;;;;4.10;2.60;;;;;;;26.95;35.22;100048.78;5091043;28;20354;-67
2021/05/10 11:29:10;;;;;;;6.20;2.75;;;;;;;27.12;36.77;100047.53;5072768;28;20038;-67
2021/05/10 11:31:38;;;;;;;5.60;2.10;;;;;;;27.02;36.77;100039.38;5073132;28;20047;-67
2021/05/10 11:34:04;;;;;;;4.28;2.15;;;;;;;26.10;38.11;100033.53;5056450;28;20460;-67